Time;durP1;ratioP1;P1;durP2;ratioP2;P2;SDS_P1;SDS_P2;PMS_P1;PMS_P2;Temp;Humidity;BMP_temperature;BMP_pressure;BME280_temperature;BME280_humidity;BME280_pressure;Samples;Min_cycle;Max_cycle;Signal;HPM_P1;HPM_P2
2021/03/17 00:02:11;;;;;;;4.88;4.47;;;;;;;1.90;100.00;96650.59;8356273;28;20044;-52
2021/03/17 00:06:14;;;;;;;5.32;4.82;;;;;;;1.98;100.00;96663.16;8386177;28;20037;-49
2021/03/17 00:10:17;;;;;;;6.85;4.78;;;;;;;1.90;100.00;96673.16;8360868;28;20044;-51
2021/03/17 00:14:19;;;;;;;5.32;4.68;;;;;;;1.97;100.00;96679.69;8356883;28;20044;-52
2021/03/17 00:18:23;;;;;;;5.43;4.63;;;;;;;1.62;100.00;96668.66;8358562;28;20052;-50
2021/03/17 00:22:26;;;;;;;5.80;5.15;;;;;;;2.08;100.00;96687.72;8355553;28;20537;-49
2021/03/17 00:26:28;;;;;;;7.95;6.38;;;;;;;2.19;100.00;96681.88;8390006;28;20043;-50
2021/03/17 00:30:31;;;;;;;7.78;6.00;;;;;;;2.43;100.00;96666.63;8367201;28;20045;-52
2021/03/17 00:34:35;;;;;;;9.70;5.68;;;;;;;2.24;100.00;96669.47;8360593;28;20036;-48
2021/03/17 00:38:37;;;;;;;9.70;6.25;;;;;;;2.22;100.00;96665.28;8352127;28;20037;-52
2021/03/17 00:42:40;;;;;;;7.25;6.07;;;;;;;1.99;100.00;96664.81;8394605;28;20049;-49
2021/03/17 00:46:43;;;;;;;9.88;6.90;;;;;;;1.70;100.00;96663.03;8352794;28;20048;-51
2021/03/17 00:50:46;;;;;;;8.43;7.45;;;;;;;2.00;100.00;96661.31;8362252;28;20028;-49
2021/03/17 00:54:51;;;;;;;7.95;6.78;;;;;;;1.87;100.00;96668.13;8364752;28;20033;-50
2021/03/17 00:58:53;;;;;;;7.18;6.15;;;;;;;1.82;100.00;96654.53;8358934;28;20045;-51
2021/03/17 01:02:56;;;;;;;8.30;6.55;;;;;;;1.97;100.00;96656.28;8386203;28;20383;-51
2021/03/17 01:06:59;;;;;;;7.22;6.43;;;;;;;1.86;100.00;96649.09;8361819;28;20044;-49
2021/03/17 01:11:02;;;;;;;8.68;6.65;;;;;;;1.78;100.00;96642.63;8364578;28;20175;-51
2021/03/17 01:15:06;;;;;;;7.25;6.55;;;;;;;2.06;100.00;96634.09;8351621;28;20045;-55
2021/03/17 01:19:08;;;;;;;7.32;6.07;;;;;;;2.09;100.00;96623.50;8390164;28;20044;-54
2021/03/17 01:23:12;;;;;;;7.20;6.50;;;;;;;2.15;100.00;96615.38;8361919;28;20036;-54
2021/03/17 01:27:14;;;;;;;6.65;5.90;;;;;;;2.11;100.00;96612.09;8368252;28;20040;-50
2021/03/17 01:31:17;;;;;;;6.50;5.80;;;;;;;1.94;100.00;96612.25;8364441;28;20143;-50
2021/03/17 01:35:20;;;;;;;6.95;5.55;;;;;;;1.80;100.00;96609.59;8355799;28;20544;-50
2021/03/17 01:39:23;;;;;;;6.65;5.50;;;;;;;1.72;100.00;96610.03;8391827;28;20040;-49
2021/03/17 01:43:25;;;;;;;5.70;5.20;;;;;;;1.79;100.00;96603.56;8354683;28;20052;-50
2021/03/17 01:47:28;;;;;;;5.70;5.20;;;;;;;1.51;100.00;96606.84;8356237;28;20585;-49
2021/03/17 01:51:30;;;;;;;5.70;5.10;;;;;;;1.74;100.00;96602.13;8360148;28;20043;-52
2021/03/17 01:55:35;;;;;;;5.50;5.00;;;;;;;1.68;100.00;96598.09;8390799;28;20052;-53
2021/03/17 01:59:37;;;;;;;8.00;5.85;;;;;;;1.62;100.00;96606.28;8374560;28;20044;-55
2021/03/17 02:03:39;;;;;;;8.38;6.75;;;;;;;1.86;100.00;96596.25;8354823;28;20044;-51
2021/03/17 02:07:42;;;;;;;9.18;7.10;;;;;;;1.76;100.00;96587.31;8356425;28;20553;-54
2021/03/17 02:11:53;;;;;;;8.18;7.28;;;;;;;1.74;100.00;96589.97;8352096;28;20506;-49
2021/03/17 02:16:03;;;;;;;7.25;6.38;;;;;;;1.83;100.00;96588.63;8391609;28;20055;-51
2021/03/17 02:20:45;;;;;;;9.45;7.70;;;;;;;1.71;100.00;96577.16;8359237;28;20047;-50
2021/03/17 02:24:50;;;;;;;7.90;6.60;;;;;;;1.75;100.00;96575.19;8352545;28;20036;-51
2021/03/17 02:29:34;;;;;;;9.90;7.03;;;;;;;1.83;100.00;96573.03;8359818;28;20040;-50
2021/03/17 02:33:45;;;;;;;8.52;7.13;;;;;;;1.83;100.00;96571.25;8259183;28;20661;-52
2021/03/17 02:37:50;;;;;;;8.10;6.65;;;;;;;2.02;100.00;96571.00;8355774;28;20040;-51
2021/03/17 02:42:03;;;;;;;8.70;7.18;;;;;;;1.93;100.00;96568.97;8387799;28;20044;-49
2021/03/17 02:46:10;;;;;;;8.90;6.78;;;;;;;1.98;100.00;96568.69;8356480;28;20384;-51
2021/03/17 02:50:15;;;;;;;8.63;7.20;;;;;;;1.97;100.00;96564.44;8358025;28;20510;-50
2021/03/17 02:54:20;;;;;;;8.43;6.43;;;;;;;1.81;100.00;96564.47;8358386;28;20044;-50
2021/03/17 02:58:24;;;;;;;7.25;6.25;;;;;;;2.00;100.00;96562.47;8360150;28;20044;-51
2021/03/17 03:02:28;;;;;;;7.78;6.70;;;;;;;2.11;100.00;96562.69;8377139;28;20048;-49
2021/03/17 03:06:32;;;;;;;8.00;7.00;;;;;;;2.29;100.00;96557.31;8351774;28;20410;-54
2021/03/17 03:10:35;;;;;;;8.00;6.95;;;;;;;1.94;100.00;96560.22;8344508;28;20040;-52
2021/03/17 03:14:38;;;;;;;8.10;6.57;;;;;;;2.13;100.00;96559.97;8345154;28;20422;-50
2021/03/17 03:18:44;;;;;;;9.93;7.63;;;;;;;2.10;100.00;96561.00;8385819;28;20048;-56
2021/03/17 03:22:48;;;;;;;9.60;7.93;;;;;;;2.25;100.00;96550.63;8345445;28;20052;-51
2021/03/17 03:26:53;;;;;;;10.70;8.55;;;;;;;1.88;100.00;96547.56;8353984;28;20688;-50
2021/03/17 03:30:56;;;;;;;9.30;7.75;;;;;;;1.78;100.00;96556.84;8354005;28;20037;-51
2021/03/17 03:34:58;;;;;;;12.55;8.48;;;;;;;1.70;100.00;96554.69;8349081;28;20036;-52
2021/03/17 03:39:01;;;;;;;9.20;7.82;;;;;;;1.79;100.00;96554.16;8386437;28;20040;-53
2021/03/17 03:43:04;;;;;;;10.40;7.97;;;;;;;1.73;100.00;96551.91;8353536;28;20039;-52
2021/03/17 03:47:07;;;;;;;10.55;8.18;;;;;;;1.71;100.00;96558.94;8342973;28;20467;-54
2021/03/17 03:51:10;;;;;;;11.43;8.63;;;;;;;1.77;100.00;96563.81;8354237;28;20506;-53
2021/03/17 03:55:18;;;;;;;10.77;8.85;;;;;;;1.85;100.00;96565.94;8383714;28;20052;-52
2021/03/17 03:59:24;;;;;;;11.18;8.60;;;;;;;2.07;100.00;96565.56;8377371;28;20056;-52
2021/03/17 04:03:27;;;;;;;12.07;9.68;;;;;;;1.99;100.00;96563.38;8353166;28;20407;-49
2021/03/17 04:07:31;;;;;;;13.68;9.65;;;;;;;1.95;100.00;96574.91;8351328;28;20044;-55
2021/03/17 04:11:35;;;;;;;15.00;10.20;;;;;;;2.01;100.00;96561.53;8343921;28;20537;-52
2021/03/17 04:15:39;;;;;;;14.50;10.43;;;;;;;2.04;100.00;96574.38;8382139;28;20041;-52
2021/03/17 04:19:43;;;;;;;15.23;10.68;;;;;;;2.19;100.00;96561.38;8352441;28;20052;-48
2021/03/17 04:23:46;;;;;;;17.08;11.32;;;;;;;2.29;100.00;96571.16;8341632;28;20410;-50
2021/03/17 04:27:52;;;;;;;19.20;12.23;;;;;;;2.43;100.00;96570.34;8353043;28;20043;-53
2021/03/17 04:31:55;;;;;;;17.08;12.20;;;;;;;2.66;100.00;96568.13;8350565;28;20040;-51
2021/03/17 04:35:58;;;;;;;20.83;12.95;;;;;;;2.62;100.00;96570.06;8381412;28;20051;-54
2021/03/17 04:40:03;;;;;;;19.15;12.30;;;;;;;2.31;100.00;96571.91;8345368;28;20049;-54
2021/03/17 04:44:07;;;;;;;18.65;12.77;;;;;;;2.10;100.00;96570.59;8342883;28;20048;-52
2021/03/17 04:48:10;;;;;;;22.00;13.18;;;;;;;1.98;100.00;96566.09;8354411;28;20061;-51
2021/03/17 04:52:14;;;;;;;21.45;13.23;;;;;;;1.86;100.00;96578.06;8381447;28;20048;-51
2021/03/17 04:56:19;;;;;;;22.00;13.15;;;;;;;1.78;100.00;96577.63;8350758;28;20442;-53
2021/03/17 05:00:24;;;;;;;21.35;13.55;;;;;;;1.81;100.00;96573.09;8357144;28;20045;-49
2021/03/17 05:04:27;;;;;;;21.27;13.57;;;;;;;1.47;100.00;96574.16;8356751;28;20052;-55
2021/03/17 05:08:30;;;;;;;22.58;13.18;;;;;;;1.48;100.00;96568.06;8354660;28;20056;-51
2021/03/17 05:12:33;;;;;;;22.45;13.98;;;;;;;1.78;100.00;96572.44;8388078;28;20056;-54
2021/03/17 05:16:37;;;;;;;22.15;13.70;;;;;;;1.78;100.00;96572.44;8361987;28;20048;-54
2021/03/17 05:20:41;;;;;;;21.45;13.35;;;;;;;1.75;100.00;96572.59;8355730;28;20047;-57
2021/03/17 05:24:44;;;;;;;24.58;14.15;;;;;;;1.89;100.00;96583.03;8358006;28;20037;-57
2021/03/17 05:28:47;;;;;;;22.42;14.02;;;;;;;1.87;100.00;96577.94;8389176;28;20060;-49
2021/03/17 05:32:52;;;;;;;20.35;13.52;;;;;;;1.99;100.00;96579.00;8355529;28;20040;-56
2021/03/17 05:36:55;;;;;;;32.10;14.70;;;;;;;2.05;100.00;96583.00;8355220;28;20047;-49
2021/03/17 05:40:57;;;;;;;21.85;14.20;;;;;;;2.04;100.00;96576.97;8354666;28;20048;-52
2021/03/17 05:45:20;;;;;;;21.57;14.90;;;;;;;2.29;100.00;96580.72;8349032;28;20041;-55
2021/03/17 05:49:41;;;;;;;31.55;16.98;;;;;;;2.27;100.00;96567.81;8379505;28;21032;-53
2021/03/17 05:53:44;;;;;;;29.60;17.05;;;;;;;2.36;100.00;96569.03;8359699;28;20556;-51
2021/03/17 05:57:47;;;;;;;30.73;17.27;;;;;;;2.32;100.00;96589.19;8359160;28;20032;-54
2021/03/17 06:01:53;;;;;;;25.35;16.90;;;;;;;2.21;100.00;96582.97;8354801;28;20039;-56
2021/03/17 06:05:57;;;;;;;33.05;17.25;;;;;;;2.29;100.00;96585.94;8350639;28;20047;-55
2021/03/17 06:10:02;;;;;;;27.38;16.70;;;;;;;2.14;100.00;96598.91;8387198;28;20044;-53
2021/03/17 06:14:08;;;;;;;26.83;16.40;;;;;;;1.72;100.00;96601.38;8350602;28;20040;-53
2021/03/17 06:18:16;;;;;;;29.60;15.80;;;;;;;1.33;100.00;96613.06;8356884;28;20040;-52
2021/03/17 06:22:20;;;;;;;29.40;15.07;;;;;;;1.49;100.00;96613.91;8347949;28;20042;-51
2021/03/17 06:26:23;;;;;;;24.52;15.10;;;;;;;1.59;100.00;96624.63;8354590;28;20044;-56
2021/03/17 06:30:26;;;;;;;27.23;15.25;;;;;;;2.07;100.00;96620.19;8386888;28;20048;-57
2021/03/17 06:34:28;;;;;;;26.52;15.43;;;;;;;2.38;100.00;96627.03;8350549;28;20040;-55
2021/03/17 06:38:31;;;;;;;23.23;14.38;;;;;;;2.32;100.00;96633.44;8355633;28;20041;-49
2021/03/17 06:42:41;;;;;;;25.90;15.38;;;;;;;2.56;100.00;96631.16;8353477;28;20044;-50
2021/03/17 06:46:43;;;;;;;17.90;11.57;;;;;;;2.48;100.00;96638.59;8387580;28;20040;-54
2021/03/17 06:50:47;;;;;;;18.92;12.52;;;;;;;2.67;100.00;96635.72;8354766;28;20060;-53
2021/03/17 06:55:11;;;;;;;19.60;11.98;;;;;;;3.11;100.00;96624.38;8356485;28;20037;-51
2021/03/17 06:59:15;;;;;;;19.40;12.80;;;;;;;3.47;100.00;96620.38;8352356;28;20037;-58
2021/03/17 07:03:17;;;;;;;18.40;12.73;;;;;;;3.48;100.00;96620.28;8350597;28;20040;-53
2021/03/17 07:07:21;;;;;;;17.45;11.95;;;;;;;3.31;100.00;96618.75;8385431;28;20422;-53
2021/03/17 07:11:28;;;;;;;18.27;12.20;;;;;;;3.75;100.00;96629.88;8356528;28;20044;-55
2021/03/17 07:15:34;;;;;;;19.83;11.75;;;;;;;3.55;100.00;96626.78;8341692;28;20525;-54
2021/03/17 07:19:39;;;;;;;16.02;10.85;;;;;;;3.28;100.00;96631.97;8362175;28;20049;-58
2021/03/17 07:23:43;;;;;;;16.35;11.40;;;;;;;3.57;100.00;96637.09;8346308;28;20510;-58
2021/03/17 07:27:56;;;;;;;16.73;11.27;;;;;;;4.28;100.00;96622.94;8385250;28;20036;-56
2021/03/17 07:31:59;;;;;;;19.48;11.60;;;;;;;4.34;100.00;96622.53;8355755;28;20418;-57
2021/03/17 07:36:01;;;;;;;16.98;11.75;;;;;;;4.37;100.00;96634.53;8352248;28;20414;-58
2021/03/17 07:40:05;;;;;;;19.77;11.38;;;;;;;4.61;100.00;96635.53;8351288;28;20515;-55
2021/03/17 07:44:10;;;;;;;16.55;10.35;;;;;;;4.93;100.00;96635.09;8362599;28;20040;-55
2021/03/17 07:48:14;;;;;;;14.35;10.18;;;;;;;4.43;100.00;96636.75;8386926;28;20369;-57
2021/03/17 07:52:20;;;;;;;19.00;10.38;;;;;;;4.48;100.00;96638.13;8355382;28;20048;-52
2021/03/17 07:56:24;;;;;;;14.45;9.50;;;;;;;4.24;100.00;96642.38;8352039;28;20045;-57
2021/03/17 08:00:28;;;;;;;13.73;9.75;;;;;;;5.01;100.00;96643.25;8350530;28;20040;-54
2021/03/17 08:04:32;;;;;;;15.88;9.75;;;;;;;5.16;100.00;96642.19;8384430;28;20412;-58
2021/03/17 08:08:36;;;;;;;16.73;10.90;;;;;;;5.19;100.00;96646.34;8347225;28;21280;-56
2021/03/17 08:12:39;;;;;;;17.83;11.10;;;;;;;5.59;100.00;96627.88;8349176;28;20042;-56
2021/03/17 08:16:43;;;;;;;15.27;10.77;;;;;;;5.71;100.00;96642.66;8353864;28;20223;-58
2021/03/17 08:20:48;;;;;;;14.32;10.65;;;;;;;5.94;100.00;96639.25;8352192;28;20036;-55
2021/03/17 08:24:50;;;;;;;17.98;11.63;;;;;;;5.88;100.00;96639.69;8375341;28;20040;-58
2021/03/17 08:28:54;;;;;;;15.02;11.23;;;;;;;6.86;100.00;96637.66;8356702;28;20041;-57
2021/03/17 08:33:00;;;;;;;15.80;10.95;;;;;;;6.24;100.00;96637.97;8354760;28;20036;-57
2021/03/17 08:37:04;;;;;;;15.27;10.80;;;;;;;6.24;100.00;96635.34;8354929;28;20037;-56
2021/03/17 08:41:07;;;;;;;15.30;10.95;;;;;;;7.13;100.00;96639.94;8387367;28;20043;-58
2021/03/17 08:45:19;;;;;;;18.33;11.38;;;;;;;6.71;100.00;96643.22;8350067;28;20044;-55
2021/03/17 08:49:30;;;;;;;17.55;11.20;;;;;;;7.35;100.00;96640.88;8361127;28;20234;-56
2021/03/17 08:53:39;;;;;;;15.65;10.90;;;;;;;7.27;100.00;96636.25;8359957;28;20041;-57
2021/03/17 08:57:59;;;;;;;17.08;10.90;;;;;;;7.92;100.00;96634.59;8359639;28;20048;-59
2021/03/17 09:02:02;;;;;;;17.00;11.18;;;;;;;7.35;100.00;96635.63;8389771;28;20036;-58
2021/03/17 09:06:10;;;;;;;14.93;10.35;;;;;;;7.24;100.00;96628.59;8348698;28;20502;-58
2021/03/17 09:10:14;;;;;;;15.52;10.60;;;;;;;7.56;100.00;96628.69;8352396;28;20036;-58
2021/03/17 09:14:27;;;;;;;14.23;10.07;;;;;;;7.09;100.00;96633.25;8351497;28;20036;-59
2021/03/17 09:18:30;;;;;;;16.88;10.50;;;;;;;7.37;100.00;96634.56;8362935;28;20033;-57
2021/03/17 09:22:37;;;;;;;13.85;9.77;;;;;;;6.32;100.00;96635.59;8381242;28;20032;-58
2021/03/17 09:26:40;;;;;;;15.27;9.30;;;;;;;5.34;100.00;96653.16;8360311;28;20037;-58
2021/03/17 09:30:45;;;;;;;16.65;10.20;;;;;;;5.14;100.00;96653.69;8360546;28;20052;-48
2021/03/17 09:34:48;;;;;;;15.93;9.65;;;;;;;4.67;100.00;96660.38;8353407;28;20047;-57
2021/03/17 09:38:53;;;;;;;16.98;10.45;;;;;;;5.04;100.00;96658.72;8352211;28;23548;-57
2021/03/17 09:42:55;;;;;;;18.35;10.45;;;;;;;4.97;100.00;96652.25;8388277;28;20033;-59
2021/03/17 09:46:58;;;;;;;18.27;10.88;;;;;;;5.43;100.00;96659.50;8354016;28;20045;-56
2021/03/17 09:51:01;;;;;;;19.10;11.38;;;;;;;6.03;100.00;96645.63;8351070;28;20045;-59
2021/03/17 09:55:06;;;;;;;19.15;10.85;;;;;;;6.36;100.00;96644.06;8356008;28;20045;-57
2021/03/17 09:59:20;;;;;;;18.08;10.60;;;;;;;7.02;100.00;96626.81;8386648;28;20642;-57
2021/03/17 10:03:24;;;;;;;19.83;11.05;;;;;;;6.92;100.00;96627.63;8380175;28;20084;-59
2021/03/17 10:07:29;;;;;;;9.77;6.82;;;;;;;6.89;100.00;96633.97;8356512;28;20096;-55
2021/03/17 10:11:33;;;;;;;10.77;6.85;;;;;;;5.64;100.00;96641.44;8354011;28;20048;-56
2021/03/17 10:15:35;;;;;;;10.02;6.95;;;;;;;6.23;100.00;96635.44;8353820;28;20083;-54
2021/03/17 10:19:39;;;;;;;8.43;6.22;;;;;;;6.60;100.00;96623.06;8387580;28;20410;-55
2021/03/17 10:23:48;;;;;;;12.23;7.45;;;;;;;6.14;100.00;96626.50;8350526;28;20538;-56
2021/03/17 10:27:52;;;;;;;11.10;7.68;;;;;;;6.47;100.00;96614.44;8359996;28;20041;-56
2021/03/17 10:31:55;;;;;;;12.00;7.50;;;;;;;6.93;100.00;96611.81;8348892;28;20048;-58
2021/03/17 10:35:58;;;;;;;14.45;9.30;;;;;;;7.79;100.00;96605.03;8349007;28;20037;-55
2021/03/17 10:40:08;;;;;;;12.65;9.00;;;;;;;7.89;100.00;96605.13;8385456;28;20044;-58
2021/03/17 10:44:13;;;;;;;12.80;9.35;;;;;;;7.85;100.00;96589.63;8355198;28;20716;-58
2021/03/17 10:48:17;;;;;;;14.35;8.88;;;;;;;6.85;100.00;96599.28;8356511;28;20510;-57
2021/03/17 10:52:20;;;;;;;11.80;8.65;;;;;;;7.10;100.00;96602.63;8358582;28;20040;-58
2021/03/17 10:56:22;;;;;;;12.48;8.75;;;;;;;6.49;100.00;96613.41;8382195;28;20432;-55
2021/03/17 11:00:27;;;;;;;7.18;4.47;;;;;;;5.04;100.00;96626.53;8360097;28;20039;-58
2021/03/17 11:04:30;;;;;;;11.02;6.03;;;;;;;4.74;100.00;96625.06;8337322;28;20040;-55
2021/03/17 11:08:32;;;;;;;7.07;4.95;;;;;;;4.65;100.00;96623.09;8348419;28;20498;-54
2021/03/17 11:12:35;;;;;;;7.07;5.60;;;;;;;4.73;100.00;96612.94;8349454;28;23454;-56
2021/03/17 11:16:38;;;;;;;6.63;5.18;;;;;;;4.83;100.00;96621.84;8387857;28;20044;-54
2021/03/17 11:20:43;;;;;;;6.72;5.45;;;;;;;4.96;100.00;96619.22;8353688;28;20537;-55
2021/03/17 11:24:46;;;;;;;9.98;5.75;;;;;;;5.01;100.00;96617.09;8349275;28;20052;-50
2021/03/17 11:28:49;;;;;;;7.95;5.50;;;;;;;5.30;100.00;96611.59;8355256;28;20041;-55
2021/03/17 11:32:52;;;;;;;8.98;5.70;;;;;;;5.68;100.00;96606.28;8381267;28;20518;-53
2021/03/17 11:36:55;;;;;;;9.43;6.03;;;;;;;4.83;100.00;96611.38;8350957;28;20047;-54
2021/03/17 11:40:58;;;;;;;6.97;5.95;;;;;;;4.20;100.00;96614.81;8352902;28;20047;-58
2021/03/17 11:45:01;;;;;;;10.05;6.18;;;;;;;4.14;100.00;96612.59;8349883;28;20418;-57
2021/03/17 11:49:04;;;;;;;9.88;5.47;;;;;;;3.60;100.00;96612.63;8355927;28;20047;-53
2021/03/17 11:53:08;;;;;;;8.23;5.30;;;;;;;3.04;100.00;96612.66;8382329;28;20044;-57
2021/03/17 11:57:10;;;;;;;7.03;5.50;;;;;;;3.09;100.00;96621.84;8357430;28;20047;-54
2021/03/17 12:01:13;;;;;;;12.27;5.63;;;;;;;2.93;100.00;96621.13;8357603;28;20394;-53
2021/03/17 12:05:24;;;;;;;7.75;5.47;;;;;;;2.93;100.00;96620.28;8347470;28;20410;-52
2021/03/17 12:09:26;;;;;;;10.27;6.75;;;;;;;3.12;100.00;96626.03;8354442;28;20055;-49
2021/03/17 12:13:29;;;;;;;12.95;6.18;;;;;;;3.23;100.00;96622.75;8377142;28;20051;-53
2021/03/17 12:17:32;;;;;;;7.78;5.70;;;;;;;3.57;100.00;96611.88;8351234;28;20411;-53
2021/03/17 12:21:35;;;;;;;8.25;6.55;;;;;;;4.42;100.00;96607.19;8356179;28;20040;-54
2021/03/17 12:25:38;;;;;;;11.88;5.88;;;;;;;4.95;100.00;96601.84;8349383;28;20064;-54
2021/03/17 12:29:41;;;;;;;8.98;5.57;;;;;;;5.02;100.00;96592.63;8382679;28;20037;-53
2021/03/17 12:33:44;;;;;;;8.05;5.30;;;;;;;5.23;100.00;96598.16;8351071;28;20489;-54
2021/03/17 12:37:50;;;;;;;7.43;5.47;;;;;;;5.41;100.00;96593.41;8359310;28;20041;-55
2021/03/17 12:41:52;;;;;;;8.68;6.75;;;;;;;5.32;100.00;96583.59;8346361;28;20474;-55
2021/03/17 12:45:55;;;;;;;10.32;6.28;;;;;;;5.65;100.00;96583.78;8350106;28;20048;-56
2021/03/17 12:49:57;;;;;;;11.38;6.53;;;;;;;5.79;100.00;96580.16;8386435;28;20044;-51
2021/03/17 12:54:01;;;;;;;6.60;4.30;;;;;;;5.21;100.00;96587.81;8350954;28;20406;-55
2021/03/17 12:58:03;;;;;;;7.50;5.95;;;;;;;5.06;100.00;96593.25;8354264;28;20414;-54
2021/03/17 13:02:06;;;;;;;10.43;7.15;;;;;;;5.25;100.00;96591.03;8349026;28;20040;-55
2021/03/17 13:06:08;;;;;;;10.55;6.93;;;;;;;5.51;100.00;96589.19;8382339;28;20036;-55
2021/03/17 13:10:14;;;;;;;10.38;6.43;;;;;;;5.44;100.00;96590.56;8348439;28;20033;-56
2021/03/17 13:14:20;;;;;;;11.25;6.97;;;;;;;5.37;100.00;96584.94;8342249;28;20045;-56
2021/03/17 13:18:23;;;;;;;8.15;5.53;;;;;;;5.51;100.00;96577.91;8354288;28;20044;-57
2021/03/17 13:22:25;;;;;;;9.02;6.60;;;;;;;5.87;100.00;96580.44;8348188;28;20047;-59
2021/03/17 13:26:29;;;;;;;12.65;7.13;;;;;;;6.08;100.00;96582.44;8386731;28;20542;-57
2021/03/17 13:30:32;;;;;;;7.35;3.80;;;;;;;5.70;100.00;96586.06;8360640;28;20049;-54
2021/03/17 13:34:36;;;;;;;5.15;4.10;;;;;;;5.72;100.00;96578.94;8354829;28;20451;-54
2021/03/17 13:38:39;;;;;;;7.50;4.72;;;;;;;6.15;100.00;96579.25;8356267;28;20040;-59
2021/03/17 13:42:43;;;;;;;9.43;4.30;;;;;;;6.22;100.00;96577.00;8386097;28;20523;-59
2021/03/17 13:46:46;;;;;;;6.22;4.50;;;;;;;6.29;100.00;96574.78;8346301;28;20044;-57
2021/03/17 13:50:49;;;;;;;6.07;4.13;;;;;;;6.29;100.00;96580.84;8355060;28;20407;-56
2021/03/17 13:54:51;;;;;;;3.42;2.72;;;;;;;5.93;91.67;96585.25;8357358;28;20036;-58
2021/03/17 13:58:55;;;;;;;5.28;3.92;;;;;;;6.36;100.00;96575.97;8363952;28;20052;-54
2021/03/17 14:02:58;;;;;;;4.95;3.90;;;;;;;5.74;98.49;96563.94;8380206;28;20040;-57
2021/03/17 14:07:01;;;;;;;6.43;4.00;;;;;;;5.88;100.00;96576.03;8335723;28;20036;-54
2021/03/17 14:11:04;;;;;;;5.03;3.65;;;;;;;5.74;95.25;96573.59;8350695;28;20059;-59
2021/03/17 14:15:10;;;;;;;6.28;3.97;;;;;;;5.36;100.00;96578.03;8350735;28;20243;-56
2021/03/17 14:19:12;;;;;;;7.60;4.03;;;;;;;4.97;100.00;96586.91;8388009;28;20055;-59
2021/03/17 14:23:15;;;;;;;4.28;3.85;;;;;;;4.22;100.00;96595.47;8349329;28;20033;-59
2021/03/17 14:27:18;;;;;;;5.40;3.35;;;;;;;3.96;100.00;96596.38;8343364;28;20041;-57
2021/03/17 14:31:21;;;;;;;4.95;3.55;;;;;;;3.91;100.00;96599.25;8350896;28;20032;-59
2021/03/17 14:35:24;;;;;;;5.55;3.95;;;;;;;4.08;100.00;96595.56;8349633;28;20075;-56
2021/03/17 14:39:27;;;;;;;5.47;4.18;;;;;;;4.21;100.00;96592.97;8379815;28;20036;-58
2021/03/17 14:43:29;;;;;;;4.75;3.80;;;;;;;4.15;100.00;96590.75;8347542;28;20048;-58
2021/03/17 14:47:33;;;;;;;3.85;3.50;;;;;;;4.46;100.00;96585.16;8346466;28;20037;-59
2021/03/17 14:51:36;;;;;;;4.85;3.90;;;;;;;4.61;100.00;96592.88;8359935;28;20510;-57
2021/03/17 14:55:39;;;;;;;4.55;3.63;;;;;;;4.84;100.00;96591.31;8388135;28;20040;-58
2021/03/17 14:59:42;;;;;;;7.53;4.15;;;;;;;5.17;100.00;96588.13;8356284;28;20043;-57
2021/03/17 15:03:45;;;;;;;4.50;3.72;;;;;;;4.99;100.00;96601.56;8335811;28;20048;-58
2021/03/17 15:07:48;;;;;;;6.35;3.90;;;;;;;5.18;100.00;96600.25;8354115;28;20044;-56
2021/03/17 15:11:51;;;;;;;5.05;4.10;;;;;;;5.36;100.00;96600.72;8352181;28;22132;-57
2021/03/17 15:15:54;;;;;;;4.60;3.95;;;;;;;5.11;100.00;96602.47;8371282;28;20029;-54
2021/03/17 15:19:57;;;;;;;4.97;3.70;;;;;;;4.93;100.00;96601.13;8354892;28;20044;-55
2021/03/17 15:24:00;;;;;;;5.32;3.78;;;;;;;4.97;100.00;96590.34;8345515;28;20071;-55
2021/03/17 15:28:03;;;;;;;6.07;3.67;;;;;;;5.05;100.00;96597.66;8349842;28;20041;-56
2021/03/17 15:32:05;;;;;;;8.30;3.97;;;;;;;5.21;100.00;96598.25;8377209;28;20495;-56
2021/03/17 15:36:10;;;;;;;4.43;3.75;;;;;;;5.00;100.00;96597.97;8351901;28;20248;-56
2021/03/17 15:40:15;;;;;;;5.32;3.83;;;;;;;5.24;100.00;96608.50;8347056;28;20043;-55
2021/03/17 15:44:18;;;;;;;3.70;3.25;;;;;;;5.14;100.00;96602.25;8349496;28;20146;-57
2021/03/17 15:48:20;;;;;;;4.78;3.85;;;;;;;5.18;100.00;96615.94;8355134;28;20036;-58
2021/03/17 15:52:24;;;;;;;3.85;2.97;;;;;;;4.80;100.00;96616.81;8367127;28;20044;-55
2021/03/17 15:56:26;;;;;;;4.13;3.70;;;;;;;4.64;100.00;96617.00;8357593;28;20036;-58
2021/03/17 16:00:31;;;;;;;4.53;3.38;;;;;;;4.66;100.00;96616.94;8355750;28;20521;-58
2021/03/17 16:04:51;;;;;;;;;;;;;;;4.44;100.00;96615.78;8350476;28;20037;-57
2021/03/17 16:08:55;;;;;;;4.70;4.05;;;;;;;4.58;100.00;96627.06;8344111;28;19920;-56
2021/03/17 16:12:58;;;;;;;5.35;3.60;;;;;;;4.33;100.00;96631.28;8369487;28;20037;-56
2021/03/17 16:17:01;;;;;;;4.15;3.35;;;;;;;4.40;100.00;96627.34;8343037;28;20028;-57
2021/03/17 16:21:04;;;;;;;4.93;3.40;;;;;;;4.34;100.00;96633.00;8349586;28;20153;-53
2021/03/17 16:25:09;;;;;;;4.00;3.60;;;;;;;4.31;100.00;96632.34;8346129;28;20713;-56
2021/03/17 16:29:12;;;;;;;4.28;3.20;;;;;;;4.35;100.00;96639.88;8379478;28;20391;-52
2021/03/17 16:33:15;;;;;;;6.15;3.72;;;;;;;4.31;100.00;96642.81;8329717;28;20051;-57
2021/03/17 16:37:18;;;;;;;3.97;3.42;;;;;;;4.09;100.00;96638.97;8343506;28;20514;-59
2021/03/17 16:41:22;;;;;;;7.38;3.75;;;;;;;4.27;100.00;96627.34;8344853;28;20033;-55
2021/03/17 16:45:25;;;;;;;5.00;3.63;;;;;;;4.22;100.00;96631.19;8341598;28;20050;-55
2021/03/17 16:49:28;;;;;;;5.38;3.92;;;;;;;4.16;100.00;96642.84;8380586;28;20715;-57
2021/03/17 16:53:31;;;;;;;4.13;3.72;;;;;;;4.11;100.00;96650.16;8349166;28;20410;-57
2021/03/17 16:57:34;;;;;;;4.60;4.00;;;;;;;4.02;100.00;96658.56;8358577;28;20093;-56
2021/03/17 17:01:37;;;;;;;4.35;3.95;;;;;;;3.87;100.00;96663.00;8335474;28;20040;-58
2021/03/17 17:05:41;;;;;;;3.80;3.50;;;;;;;3.69;100.00;96672.03;8383189;28;20039;-57
2021/03/17 17:09:43;;;;;;;4.57;3.65;;;;;;;3.64;100.00;96681.88;8355082;28;20044;-52
2021/03/17 17:13:47;;;;;;;4.22;3.75;;;;;;;3.56;100.00;96688.44;8350146;28;20044;-56
2021/03/17 17:17:50;;;;;;;4.80;4.05;;;;;;;3.63;100.00;96686.28;8339138;28;20040;-57
2021/03/17 17:21:52;;;;;;;5.15;4.45;;;;;;;3.65;100.00;96680.94;8352396;28;20036;-57
2021/03/17 17:25:55;;;;;;;5.78;4.10;;;;;;;3.45;100.00;96688.25;8374627;28;20040;-55
2021/03/17 17:29:58;;;;;;;4.68;3.92;;;;;;;3.47;100.00;96685.56;8357127;28;20045;-57
2021/03/17 17:34:01;;;;;;;5.18;4.00;;;;;;;3.41;100.00;96685.97;8351763;28;20041;-58
2021/03/17 17:38:04;;;;;;;4.63;3.92;;;;;;;3.15;100.00;96695.34;8354921;28;20040;-57
2021/03/17 17:42:07;;;;;;;4.65;3.88;;;;;;;2.99;100.00;96690.22;8384282;28;20048;-64
2021/03/17 17:46:11;;;;;;;4.18;3.78;;;;;;;2.97;100.00;96699.91;8326278;28;20037;-57
2021/03/17 17:50:14;;;;;;;4.43;3.97;;;;;;;3.05;100.00;96698.50;8356583;28;20498;-58
2021/03/17 17:54:17;;;;;;;4.30;3.90;;;;;;;3.16;100.00;96699.63;8356007;28;20051;-58
2021/03/17 17:58:20;;;;;;;5.78;4.22;;;;;;;3.06;100.00;96696.75;8354592;28;20063;-55
2021/03/17 18:02:23;;;;;;;5.40;4.30;;;;;;;3.05;100.00;96706.31;8380148;28;20048;-56
2021/03/17 18:06:26;;;;;;;6.22;3.92;;;;;;;2.93;100.00;96707.06;8351697;28;20032;-55
2021/03/17 18:10:29;;;;;;;4.15;3.75;;;;;;;2.64;100.00;96702.75;8345846;28;20517;-58
2021/03/17 18:14:33;;;;;;;4.75;4.05;;;;;;;2.33;100.00;96712.31;8349858;28;20402;-58
2021/03/17 18:18:37;;;;;;;5.18;4.32;;;;;;;2.48;100.00;96710.59;8387259;28;20402;-58
2021/03/17 18:22:40;;;;;;;5.40;4.10;;;;;;;2.60;100.00;96715.09;8365126;28;20395;-54
2021/03/17 18:26:43;;;;;;;6.68;4.20;;;;;;;2.65;100.00;96714.81;8355608;28;20049;-54
2021/03/17 18:30:45;;;;;;;4.72;4.32;;;;;;;2.74;100.00;96724.72;8358253;28;20051;-56
2021/03/17 18:34:49;;;;;;;6.28;4.30;;;;;;;2.79;100.00;96725.28;8334016;28;20384;-52
2021/03/17 18:38:51;;;;;;;15.32;7.03;;;;;;;2.90;100.00;96730.69;8361087;28;20036;-56
2021/03/17 18:42:54;;;;;;;11.20;6.45;;;;;;;2.75;100.00;96732.44;8345414;28;20688;-57
2021/03/17 18:46:57;;;;;;;17.15;8.07;;;;;;;2.79;100.00;96733.09;8350421;28;20726;-57
2021/03/17 18:51:00;;;;;;;15.30;7.10;;;;;;;2.80;100.00;96730.41;8349328;28;20398;-51
2021/03/17 18:55:07;;;;;;;7.55;6.03;;;;;;;2.75;100.00;96739.41;8382035;28;20039;-56
2021/03/17 18:59:09;;;;;;;9.82;5.03;;;;;;;2.76;100.00;96739.31;8356101;28;20511;-56